Time;durP1;ratioP1;P1;durP2;ratioP2;P2;SDS_P1;SDS_P2;PMS_P1;PMS_P2;Temp;Humidity;BMP_temperature;BMP_pressure;BME280_temperature;BME280_humidity;BME280_pressure;Samples;Min_cycle;Max_cycle;Signal;HPM_P1;HPM_P2
2022/08/27 00:00:23;;;;;;;0.57;0.57;;;;;;;17.54;70.81;101668.97;5073396;28;20025;-88
2022/08/27 00:02:49;;;;;;;0.87;0.87;;;;;;;17.54;70.84;101668.97;5072543;28;20526;-88
2022/08/27 00:05:16;;;;;;;1.10;1.00;;;;;;;17.52;70.95;101668.16;5073613;28;20433;-88
2022/08/27 00:07:43;;;;;;;0.98;0.98;;;;;;;17.49;70.90;101663.88;5073661;28;20036;-88
2022/08/27 00:10:12;;;;;;;0.85;0.85;;;;;;;17.47;70.93;101662.19;5072181;28;20025;-88
2022/08/27 00:12:37;;;;;;;0.80;0.80;;;;;;;17.42;70.96;101663.22;5073974;28;20017;-88
2022/08/27 00:15:05;;;;;;;0.70;0.70;;;;;;;17.40;71.09;101661.50;5073454;28;20059;-88
2022/08/27 00:17:31;;;;;;;1.02;0.88;;;;;;;17.36;71.20;101658.13;5073431;28;20067;-88
2022/08/27 00:19:56;;;;;;;1.10;1.00;;;;;;;17.32;71.29;101659.16;5072717;28;20024;-87
2022/08/27 00:22:21;;;;;;;0.90;0.90;;;;;;;17.28;71.31;101655.72;5072624;28;20074;-88
2022/08/27 00:24:47;;;;;;;0.90;0.90;;;;;;;17.24;71.41;101655.88;5073597;28;20058;-88
2022/08/27 00:27:12;;;;;;;1.20;1.10;;;;;;;17.19;71.38;101652.56;5073053;28;20094;-89
2022/08/27 00:29:37;;;;;;;2.00;1.10;;;;;;;17.14;71.50;101650.91;5072092;28;20029;-88
2022/08/27 00:32:03;;;;;;;0.90;0.80;;;;;;;17.09;71.48;101654.59;5071884;28;20048;-88
2022/08/27 00:34:28;;;;;;;1.47;1.10;;;;;;;17.04;71.58;101653.88;5072410;28;20028;-89
2022/08/27 00:36:53;;;;;;;1.53;1.13;;;;;;;16.97;71.63;101646.16;5072655;28;20031;-88
2022/08/27 00:39:19;;;;;;;1.17;1.07;;;;;;;16.92;71.57;101653.31;5073300;28;20039;-89
2022/08/27 00:41:45;;;;;;;1.20;1.13;;;;;;;16.88;71.56;101653.44;5072845;28;20082;-88
2022/08/27 00:44:12;;;;;;;1.00;1.00;;;;;;;16.81;71.78;101653.59;5072022;28;20036;-88
2022/08/27 00:46:42;;;;;;;;;;;;;;;16.75;71.99;101648.53;5073438;28;20538;-88
2022/08/27 00:49:17;;;;;;;1.30;1.20;;;;;;;16.70;72.05;101653.03;5073011;28;19912;-88
2022/08/27 00:51:46;;;;;;;1.30;1.20;;;;;;;16.65;72.23;101658.41;5072569;28;20472;-88
2022/08/27 00:54:11;;;;;;;1.27;1.17;;;;;;;16.57;72.31;101664.75;5072853;28;20076;-88
2022/08/27 00:56:44;;;;;;;1.40;1.17;;;;;;;16.50;72.27;101661.44;5073354;28;20060;-88
2022/08/27 00:59:13;;;;;;;2.30;1.20;;;;;;;16.45;72.43;101663.34;5071911;28;20028;-88
2022/08/27 01:02:17;;;;;;;1.13;1.02;;;;;;;16.38;72.51;101660.03;5073074;28;20074;-88
2022/08/27 01:04:25;;;;;;;3.28;1.30;;;;;;;16.33;72.71;101662.75;5071564;28;20032;-88
2022/08/27 01:06:52;;;;;;;;;;;;;;;16.29;72.81;101658.50;5073561;28;20045;-89
2022/08/27 01:09:17;;;;;;;1.30;1.20;;;;;;;16.25;72.77;101648.16;5077253;28;19999;-88
2022/08/27 01:11:46;;;;;;;1.10;1.10;;;;;;;16.19;72.81;101652.66;5076585;28;20086;-88
2022/08/27 01:14:11;;;;;;;1.20;1.10;;;;;;;16.16;72.93;101651.84;5076732;28;20024;-88
2022/08/27 01:16:40;;;;;;;1.00;1.00;;;;;;;16.12;73.07;101648.47;5076961;28;20074;-88
2022/08/27 01:19:15;;;;;;;1.40;1.30;;;;;;;16.12;73.19;101652.84;5075801;28;20052;-88
2022/08/27 01:21:50;;;;;;;1.33;1.23;;;;;;;16.09;73.07;101648.56;5077237;28;20441;-88
2022/08/27 01:24:29;;;;;;;1.50;1.40;;;;;;;16.05;73.29;101645.13;5076540;28;20055;-88
2022/08/27 01:26:56;;;;;;;1.30;1.20;;;;;;;15.99;73.62;101650.53;5075665;28;20032;-87
2022/08/27 01:29:22;;;;;;;1.35;1.25;;;;;;;15.96;73.39;101642.75;5076769;28;20031;-89
2022/08/27 01:31:47;;;;;;;1.30;1.20;;;;;;;15.92;73.36;101648.13;5077065;28;20028;-88
2022/08/27 01:34:13;;;;;;;1.50;1.40;;;;;;;15.86;73.60;101646.50;5075975;28;20028;-89
2022/08/27 01:36:39;;;;;;;1.57;1.47;;;;;;;15.82;73.45;101640.47;5076968;28;20039;-88
2022/08/27 01:39:04;;;;;;;1.27;1.17;;;;;;;15.75;73.85;101644.13;5076355;28;20092;-88
2022/08/27 01:41:29;;;;;;;1.10;1.00;;;;;;;15.69;74.00;101645.13;5076147;28;20421;-88
2022/08/27 01:43:54;;;;;;;2.20;1.60;;;;;;;15.66;74.35;101644.31;5076124;28;20056;-88
2022/08/27 01:46:25;;;;;;;1.07;1.07;;;;;;;15.64;74.34;101640.91;5076696;28;20025;-89
2022/08/27 01:48:50;;;;;;;1.48;1.38;;;;;;;15.58;74.35;101640.16;5075651;28;20060;-88
2022/08/27 01:51:16;;;;;;;2.17;1.20;;;;;;;15.54;74.22;101638.50;5076321;28;20056;-88
2022/08/27 01:53:41;;;;;;;1.50;1.40;;;;;;;15.49;74.51;101642.09;5074343;28;20066;-88
2022/08/27 01:56:07;;;;;;;1.33;1.23;;;;;;;15.44;74.72;101635.25;5075809;28;20025;-88
2022/08/27 01:58:33;;;;;;;1.33;1.23;;;;;;;15.41;74.62;101637.94;5075951;28;20526;-89
2022/08/27 02:01:06;;;;;;;1.60;1.50;;;;;;;15.39;74.97;101641.47;5075356;28;20036;-88
2022/08/27 02:03:35;;;;;;;1.38;1.27;;;;;;;15.36;74.81;101634.56;5076199;28;20093;-88
2022/08/27 02:06:04;;;;;;;1.15;1.15;;;;;;;15.35;74.88;101634.59;5075669;28;20056;-88
2022/08/27 02:08:30;;;;;;;1.20;1.20;;;;;;;15.33;74.88;101641.59;5075413;28;20028;-89
2022/08/27 02:10:55;;;;;;;1.50;1.20;;;;;;;15.28;75.03;101639.09;5075654;28;20028;-88
2022/08/27 02:13:20;;;;;;;1.57;1.30;;;;;;;15.25;75.21;101633.94;5075900;28;20465;-88
2022/08/27 02:15:46;;;;;;;1.17;1.10;;;;;;;15.22;75.19;101628.78;5075333;28;20021;-88
2022/08/27 02:18:12;;;;;;;1.77;1.30;;;;;;;15.20;75.30;101631.41;5075017;28;20021;-88
2022/08/27 02:20:38;;;;;;;;;;;;;;;15.19;75.44;101632.34;5075513;28;20094;-88
2022/08/27 02:23:04;;;;;;;1.60;1.50;;;;;;;15.13;75.24;101629.84;5074439;28;19939;-88
2022/08/27 02:25:29;;;;;;;1.40;1.30;;;;;;;15.09;75.28;101628.16;5075344;28;20044;-88
2022/08/27 02:27:56;;;;;;;1.20;1.20;;;;;;;15.05;75.59;101627.38;5075395;28;20028;-88
2022/08/27 02:30:23;;;;;;;1.73;1.30;;;;;;;15.00;75.36;101623.16;5075119;28;20020;-88
2022/08/27 02:32:48;;;;;;;;;;;;;;;14.95;75.53;101621.50;5076060;28;20017;-88
2022/08/27 02:35:15;;;;;;;1.52;1.42;;;;;;;14.90;76.00;101614.66;5075915;28;19919;-88
2022/08/27 02:37:40;;;;;;;;;;;;;;;14.90;75.82;101622.50;5074794;28;20101;-88
2022/08/27 02:40:07;;;;;;;1.60;1.43;;;;;;;14.88;75.87;101613.81;5075191;28;19982;-88
2022/08/27 02:42:33;;;;;;;1.50;1.40;;;;;;;14.87;75.61;101612.09;5075616;28;20021;-88
2022/08/27 02:44:58;;;;;;;2.03;1.63;;;;;;;14.83;76.08;101613.91;5074769;28;20376;-88
2022/08/27 02:47:23;;;;;;;1.37;1.27;;;;;;;14.78;76.02;101618.38;5075452;28;20020;-88
2022/08/27 02:49:49;;;;;;;1.33;1.27;;;;;;;14.75;76.19;101632.38;5074741;28;20115;-88
2022/08/27 02:52:15;;;;;;;1.40;1.30;;;;;;;14.72;76.28;101621.97;5074575;28;20013;-88
2022/08/27 02:54:41;;;;;;;1.50;1.40;;;;;;;14.71;76.42;101614.16;5074525;28;20020;-88
2022/08/27 02:57:06;;;;;;;1.10;1.10;;;;;;;14.68;76.47;101625.56;5073431;28;20020;-88
2022/08/27 02:59:31;;;;;;;1.70;1.40;;;;;;;14.67;76.43;101627.28;5075282;28;20028;-88
2022/08/27 03:01:56;;;;;;;1.20;1.00;;;;;;;14.65;77.04;101623.81;5074632;28;20111;-88
2022/08/27 03:04:22;;;;;;;1.57;1.43;;;;;;;14.66;76.82;101627.28;5074069;28;20020;-88
2022/08/27 03:06:48;;;;;;;1.37;1.27;;;;;;;14.64;76.61;101627.31;5074836;28;20020;-88
2022/08/27 03:09:14;;;;;;;1.10;1.10;;;;;;;14.63;77.00;101624.75;5074799;28;20032;-88
2022/08/27 03:11:40;;;;;;;1.77;1.30;;;;;;;14.62;76.99;101626.50;5074405;28;20028;-88
2022/08/27 03:14:05;;;;;;;1.17;1.17;;;;;;;14.61;77.08;101621.28;5074540;28;20033;-88
2022/08/27 03:16:35;;;;;;;1.33;1.00;;;;;;;14.61;77.18;101624.78;5074694;28;20366;-88
2022/08/27 03:19:01;;;;;;;1.35;1.25;;;;;;;14.61;77.12;101621.28;5073663;28;20417;-88
2022/08/27 03:21:26;;;;;;;1.37;1.27;;;;;;;14.62;77.24;101626.50;5074176;28;20056;-88
2022/08/27 03:23:52;;;;;;;1.00;1.00;;;;;;;14.61;77.58;101630.00;5074126;28;20040;-88
2022/08/27 03:26:18;;;;;;;1.00;0.93;;;;;;;14.61;77.58;101623.91;5073572;28;20354;-88
2022/08/27 03:28:44;;;;;;;1.15;1.05;;;;;;;14.60;77.70;101628.28;5074500;28;20029;-88
2022/08/27 03:31:25;;;;;;;0.90;0.90;;;;;;;14.59;77.35;101623.94;5074003;28;20025;-88
2022/08/27 03:34:01;;;;;;;1.40;1.27;;;;;;;14.58;77.52;101622.22;5073475;28;20488;-88
2022/08/27 03:36:28;;;;;;;0.90;0.90;;;;;;;14.58;78.15;101629.22;5074068;28;20024;-88
2022/08/27 03:38:54;;;;;;;0.90;0.90;;;;;;;14.56;77.87;101624.00;5074287;28;20039;-88
2022/08/27 03:41:21;;;;;;;0.90;0.90;;;;;;;14.55;77.62;101624.88;5073593;28;20032;-88
2022/08/27 03:43:46;;;;;;;0.82;0.82;;;;;;;14.54;77.81;101631.00;5074246;28;20032;-88
2022/08/27 03:46:12;;;;;;;0.80;0.80;;;;;;;14.53;77.88;101629.28;5072798;28;20021;-87
2022/08/27 03:48:37;;;;;;;1.23;1.20;;;;;;;14.54;77.87;101637.97;5073306;28;20533;-88
2022/08/27 03:51:07;;;;;;;1.30;1.20;;;;;;;14.54;77.82;101635.38;5073509;28;20107;-88
2022/08/27 03:53:34;;;;;;;1.40;1.30;;;;;;;14.54;77.95;101632.75;5073420;28;20024;-88
2022/08/27 03:56:00;;;;;;;1.20;1.20;;;;;;;14.54;77.97;101625.78;5073832;28;20032;-87
2022/08/27 03:58:25;;;;;;;1.47;1.37;;;;;;;14.52;78.12;101628.41;5073697;28;20153;-88
2022/08/27 04:00:50;;;;;;;2.53;1.37;;;;;;;14.52;77.95;101625.81;5072461;28;20063;-87
2022/08/27 04:03:16;;;;;;;1.60;1.50;;;;;;;14.52;78.19;101627.56;5073858;28;20380;-88
2022/08/27 04:05:41;;;;;;;1.23;1.23;;;;;;;14.48;78.01;101628.50;5073749;28;20025;-87
2022/08/27 04:08:08;;;;;;;1.80;1.70;;;;;;;14.45;78.13;101632.06;5072783;28;20487;-88
2022/08/27 04:10:34;;;;;;;1.65;1.50;;;;;;;14.45;78.30;101629.44;5073304;28;20025;-88
2022/08/27 04:12:59;;;;;;;1.60;1.50;;;;;;;14.46;78.14;101628.56;5072740;28;20454;-87
2022/08/27 04:15:25;;;;;;;1.63;1.53;;;;;;;14.45;77.95;101624.22;5072820;28;20024;-86
2022/08/27 04:17:50;;;;;;;1.80;1.67;;;;;;;14.45;78.20;101625.94;5072874;28;20024;-88
2022/08/27 04:20:16;;;;;;;2.60;1.57;;;;;;;14.40;78.17;101626.03;5073272;28;20032;-88
2022/08/27 04:22:41;;;;;;;2.03;1.50;;;;;;;14.37;78.27;101623.47;5072493;28;20033;-87
2022/08/27 04:25:07;;;;;;;1.50;1.40;;;;;;;14.35;78.46;101625.28;5073144;28;20028;-88
2022/08/27 04:27:33;;;;;;;2.33;1.75;;;;;;;14.35;78.35;101617.44;5073473;28;20121;-87
2022/08/27 04:29:59;;;;;;;1.50;1.40;;;;;;;14.33;77.99;101625.28;5072501;28;20491;-87
2022/08/27 04:32:26;;;;;;;1.60;1.50;;;;;;;14.35;78.49;101628.75;5073119;28;20027;-88
2022/08/27 04:34:56;;;;;;;1.50;1.40;;;;;;;14.32;78.56;101631.41;5072659;28;20411;-88
2022/08/27 04:37:22;;;;;;;1.63;1.52;;;;;;;14.26;78.40;101631.53;5072638;28;20032;-88
2022/08/27 04:39:48;;;;;;;1.70;1.60;;;;;;;14.26;78.83;101634.13;5072693;28;20021;-88
2022/08/27 04:42:17;;;;;;;1.65;1.40;;;;;;;14.26;78.73;101636.75;5072298;28;20025;-88
2022/08/27 04:44:42;;;;;;;1.50;1.40;;;;;;;14.27;78.94;101643.69;5072603;28;20028;-88
2022/08/27 04:47:07;;;;;;;1.63;1.53;;;;;;;14.28;79.09;101642.81;5072629;28;20319;-88
2022/08/27 04:49:33;;;;;;;1.43;1.37;;;;;;;14.28;78.86;101637.59;5072279;28;20024;-87
2022/08/27 04:51:58;;;;;;;1.27;1.20;;;;;;;14.27;78.96;101635.84;5072639;28;20113;-88
2022/08/27 04:54:25;;;;;;;1.60;1.40;;;;;;;14.27;78.90;101638.47;5073309;28;20059;-87
2022/08/27 04:56:51;;;;;;;1.50;1.40;;;;;;;14.27;79.05;101635.84;5072053;28;20427;-88
2022/08/27 04:59:16;;;;;;;1.30;1.20;;;;;;;14.25;79.11;101637.63;5072660;28;20023;-88
2022/08/27 05:01:42;;;;;;;1.40;1.30;;;;;;;14.24;79.27;101638.50;5072268;28;20524;-87
2022/08/27 05:04:10;;;;;;;1.23;1.13;;;;;;;14.24;79.24;101638.50;5071802;28;20020;-87
2022/08/27 05:06:36;;;;;;;1.40;1.25;;;;;;;14.24;79.38;101641.13;5073294;28;20032;-88
2022/08/27 05:09:02;;;;;;;1.57;1.30;;;;;;;14.26;79.51;101636.75;5072242;28;20468;-88
2022/08/27 05:11:31;;;;;;;1.20;1.15;;;;;;;14.27;79.50;101646.31;5071694;28;20029;-88
2022/08/27 05:13:57;;;;;;;1.30;1.20;;;;;;;14.31;79.24;101644.50;5072414;28;20027;-88
2022/08/27 05:16:23;;;;;;;1.40;1.30;;;;;;;14.34;79.47;101644.44;5072767;28;20538;-87
2022/08/27 05:18:51;;;;;;;1.20;1.10;;;;;;;14.36;79.61;101646.13;5071844;28;20072;-88
2022/08/27 05:21:30;;;;;;;1.42;1.33;;;;;;;14.43;79.65;101648.63;5072482;28;20024;-88
2022/08/27 05:23:58;;;;;;;1.27;1.17;;;;;;;14.48;79.79;101652.03;5072448;28;20362;-87
2022/08/27 05:26:24;;;;;;;1.50;1.40;;;;;;;14.53;79.59;101644.94;5072402;28;20059;-88
2022/08/27 05:28:49;;;;;;;1.45;1.27;;;;;;;14.61;79.61;101644.78;5072304;28;20512;-87
2022/08/27 05:31:16;;;;;;;1.37;1.27;;;;;;;14.67;79.93;101647.34;5072485;28;20059;-88
2022/08/27 05:33:43;;;;;;;1.45;1.30;;;;;;;14.74;79.26;101650.69;5072030;28;20064;-88
2022/08/27 05:36:14;;;;;;;;;;;;;;;14.82;79.61;101651.41;5072925;28;20325;-87
2022/08/27 05:38:39;;;;;;;1.40;1.30;;;;;;;14.90;79.73;101643.41;5071683;28;19920;-87
2022/08/27 05:41:08;;;;;;;1.77;1.63;;;;;;;14.99;79.55;101653.66;5071227;28;20033;-88
2022/08/27 05:43:35;;;;;;;1.20;1.10;;;;;;;15.08;79.43;101657.84;5072086;28;20487;-88
2022/08/27 05:46:04;;;;;;;;;;;;;;;15.15;79.59;101643.75;5071777;28;20024;-88
2022/08/27 05:48:30;;;;;;;1.48;1.20;;;;;;;15.22;79.71;101650.53;5072479;28;19913;-88
2022/08/27 05:50:56;;;;;;;1.30;1.20;;;;;;;15.33;79.53;101649.44;5072252;28;20481;-87
2022/08/27 05:53:22;;;;;;;0.97;0.97;;;;;;;15.40;79.39;101651.91;5072814;28;20024;-87
2022/08/27 05:55:47;;;;;;;1.27;1.17;;;;;;;15.46;79.36;101648.28;5076090;28;20040;-87
2022/08/27 06:01:04;;;;;;;0.90;0.90;;;;;;;15.62;79.46;101653.16;5075085;28;20409;-87
2022/08/27 06:03:35;;;;;;;1.40;1.30;;;;;;;15.64;80.88;101647.00;5076103;28;20040;-87
2022/08/27 06:06:07;;;;;;;1.70;1.60;;;;;;;15.66;81.63;101652.19;5075668;28;20031;-89
2022/08/27 06:08:33;;;;;;;4.88;2.72;;;;;;;15.63;82.58;101662.75;5075307;28;20366;-87
2022/08/27 06:11:00;;;;;;;2.60;2.40;;;;;;;15.63;81.24;101665.34;5074379;28;20035;-88
2022/08/27 06:13:27;;;;;;;2.72;2.00;;;;;;;15.66;82.22;101663.53;5074531;28;20039;-86
2022/08/27 06:16:08;;;;;;;3.40;2.40;;;;;;;15.65;83.17;101669.66;5074070;28;20035;-90
2022/08/27 06:18:35;;;;;;;3.35;2.30;;;;;;;15.68;81.14;101666.97;5074772;28;20036;-85
2022/08/27 06:21:00;;;;;;;2.97;1.90;;;;;;;15.74;81.35;101658.97;5073800;28;20521;-86
2022/08/27 06:23:27;;;;;;;2.10;1.80;;;;;;;15.81;80.72;101664.91;5075358;28;20116;-87
2022/08/27 06:25:52;;;;;;;;;;;;;;;15.90;81.06;101667.31;5075820;28;20025;-83
2022/08/27 06:28:22;;;;;;;1.30;1.20;;;;;;;15.96;80.57;101662.84;5073356;28;20370;-82
2022/08/27 06:30:48;;;;;;;1.63;1.52;;;;;;;16.03;81.13;101667.03;5075087;28;20028;-82
2022/08/27 06:33:14;;;;;;;1.53;1.40;;;;;;;16.11;80.53;101661.59;5075309;28;20032;-83
2022/08/27 06:35:39;;;;;;;1.00;1.00;;;;;;;16.16;80.41;101657.97;5073989;28;20025;-83
2022/08/27 06:38:04;;;;;;;1.00;1.00;;;;;;;16.25;80.20;101661.25;5074980;28;20056;-83
2022/08/27 06:40:30;;;;;;;1.30;1.20;;;;;;;16.31;80.02;101666.34;5075220;28;20025;-83
2022/08/27 06:42:55;;;;;;;0.83;0.83;;;;;;;16.35;80.22;101668.84;5073858;28;20028;-83
2022/08/27 06:45:20;;;;;;;0.77;0.77;;;;;;;16.38;80.15;101662.66;5074549;28;20024;-82
2022/08/27 06:47:46;;;;;;;0.90;0.90;;;;;;;16.42;80.04;101666.91;5074812;28;20056;-83
2022/08/27 06:50:11;;;;;;;0.90;0.77;;;;;;;16.46;79.81;101667.69;5073300;28;20040;-82
2022/08/27 06:52:37;;;;;;;0.73;0.73;;;;;;;16.50;79.91;101674.53;5074972;28;20021;-83
2022/08/27 06:55:03;;;;;;;1.47;0.83;;;;;;;16.54;79.55;101663.09;5074721;28;20101;-82
2022/08/27 06:57:28;;;;;;;0.60;0.60;;;;;;;16.61;79.80;101666.41;5074018;28;20043;-83
2022/08/27 06:59:54;;;;;;;2.23;0.87;;;;;;;16.65;79.47;101662.81;5073745;28;20369;-83
2022/08/27 07:02:19;;;;;;;2.30;0.87;;;;;;;16.70;79.73;101666.13;5073302;28;20036;-82
2022/08/27 07:04:44;;;;;;;0.90;0.90;;;;;;;16.72;79.40;101664.34;5072750;28;20029;-83
2022/08/27 07:07:12;;;;;;;0.90;0.90;;;;;;;16.72;79.23;101668.75;5074743;28;20641;-83
2022/08/27 07:09:37;;;;;;;0.70;0.70;;;;;;;16.74;79.08;101666.91;5073805;28;20025;-83
2022/08/27 07:12:03;;;;;;;2.30;1.87;;;;;;;16.73;79.33;101670.44;5073057;28;20111;-83
2022/08/27 07:14:29;;;;;;;1.52;1.42;;;;;;;16.72;78.96;101661.72;5074586;28;20074;-83
2022/08/27 07:16:55;;;;;;;1.37;1.27;;;;;;;16.78;79.17;101669.41;5073655;28;20033;-87
2022/08/27 07:19:20;;;;;;;1.53;1.33;;;;;;;16.81;78.71;101674.56;5072939;28;20028;-87
2022/08/27 07:21:45;;;;;;;1.60;1.27;;;;;;;16.86;78.55;101677.06;5073456;28;20683;-87
2022/08/27 07:24:11;;;;;;;1.17;1.00;;;;;;;16.93;78.40;101675.13;5073111;28;20059;-87
2022/08/27 07:26:40;;;;;;;1.37;1.07;;;;;;;17.01;78.46;101678.41;5074716;28;20074;-86
2022/08/27 07:29:08;;;;;;;1.77;1.60;;;;;;;17.05;78.10;101681.81;5073594;28;20107;-85
2022/08/27 07:31:34;;;;;;;1.80;1.45;;;;;;;17.06;78.25;101679.13;5073263;28;20052;-85
2022/08/27 07:34:01;;;;;;;1.35;1.23;;;;;;;17.14;78.27;101682.38;5074153;28;20024;-88
2022/08/27 07:36:26;;;;;;;2.00;1.75;;;;;;;17.21;77.00;101677.81;5074415;28;20083;-89
2022/08/27 07:38:51;;;;;;;2.60;1.80;;;;;;;17.29;77.51;101675.81;5073159;28;20028;-88
2022/08/27 07:41:17;;;;;;;1.40;1.30;;;;;;;17.41;77.29;101677.22;5073615;28;20473;-88
2022/08/27 07:46:26;;;;;;;1.77;1.40;;;;;;;17.64;74.93;101685.28;5074435;28;20039;-95
2022/08/27 07:48:54;;;;;;;2.00;1.80;;;;;;;17.71;74.57;101682.41;5074454;28;20028;-90
2022/08/27 07:51:20;;;;;;;1.98;1.58;;;;;;;17.77;74.79;101688.38;5074653;28;20047;-90
2022/08/27 07:53:46;;;;;;;;;;;;;;;17.84;74.21;101684.66;5073814;28;20565;-91
2022/08/27 07:56:12;;;;;;;1.83;1.60;;;;;;;17.90;74.51;101687.09;5074177;28;20011;-91
2022/08/27 07:58:38;;;;;;;1.65;1.55;;;;;;;18.00;73.98;101691.16;5074436;28;20107;-90
2022/08/27 08:01:04;;;;;;;1.60;1.50;;;;;;;18.06;73.10;101690.09;5073113;28;20545;-91
2022/08/27 08:03:30;;;;;;;1.77;1.20;;;;;;;18.15;73.65;101694.16;5074391;28;20020;-90
2022/08/27 08:05:56;;;;;;;2.30;1.70;;;;;;;18.25;73.43;101694.72;5074338;28;20488;-91
2022/08/27 08:08:22;;;;;;;2.03;1.83;;;;;;;18.40;72.56;101696.84;5073395;28;20115;-92
2022/08/27 08:10:48;;;;;;;3.38;2.00;;;;;;;18.57;69.97;101698.00;5073821;28;20056;-89
2022/08/27 08:13:15;;;;;;;3.47;2.30;;;;;;;18.75;71.85;101697.31;5073913;28;20437;-90
2022/08/27 08:15:45;;;;;;;2.80;1.92;;;;;;;18.95;70.50;101688.75;5073018;28;20103;-91
2022/08/27 08:18:10;;;;;;;2.65;1.95;;;;;;;19.09;69.03;101695.28;5072627;28;20120;-89
2022/08/27 08:20:36;;;;;;;2.10;1.90;;;;;;;19.14;68.45;101682.78;5072833;28;20020;-88
2022/08/27 08:23:02;;;;;;;1.80;1.70;;;;;;;19.13;70.48;101689.84;5073278;28;20055;-89
2022/08/27 08:25:28;;;;;;;2.20;2.00;;;;;;;19.08;69.20;101690.94;5073885;28;20047;-88
2022/08/27 08:27:54;;;;;;;2.57;1.87;;;;;;;19.06;69.97;101685.72;5072338;28;20032;-89
2022/08/27 08:30:19;;;;;;;3.45;1.70;;;;;;;19.14;69.51;101690.69;5073622;28;20267;-90
2022/08/27 08:32:44;;;;;;;5.90;3.20;;;;;;;19.04;66.14;101700.72;5073604;28;20099;-88
2022/08/27 08:35:10;;;;;;;4.97;3.30;;;;;;;18.93;67.31;101698.47;5072033;28;20052;-89
2022/08/27 08:37:36;;;;;;;5.10;2.90;;;;;;;18.87;67.34;101710.94;5073728;28;20093;-90
2022/08/27 08:40:03;;;;;;;4.53;2.63;;;;;;;18.85;68.77;101705.75;5073368;28;20385;-90
2022/08/27 08:42:38;;;;;;;3.53;2.30;;;;;;;19.01;68.65;101710.50;5072735;28;20063;-89
2022/08/27 08:45:05;;;;;;;3.05;2.05;;;;;;;19.13;68.75;101702.16;5073601;28;20012;-90
2022/08/27 08:47:34;;;;;;;3.63;2.20;;;;;;;19.31;67.28;101699.72;5073574;28;20048;-89
2022/08/27 08:50:09;;;;;;;3.00;1.95;;;;;;;19.52;64.94;101698.88;5072805;28;20111;-90
2022/08/27 08:52:59;;;;;;;2.83;2.15;;;;;;;19.70;64.58;101697.28;5073511;28;20024;-90
2022/08/27 08:55:27;;;;;;;4.45;2.20;;;;;;;19.95;61.57;101695.44;5073386;28;20430;-89
2022/08/27 08:58:06;;;;;;;2.50;1.75;;;;;;;20.17;60.62;101698.91;5072234;28;20047;-92
2022/08/27 09:00:32;;;;;;;2.35;1.80;;;;;;;20.41;64.18;101697.94;5073654;28;20028;-89
2022/08/27 09:02:57;;;;;;;3.43;2.00;;;;;;;20.64;56.97;101699.56;5071901;28;20044;-85
2022/08/27 09:05:24;;;;;;;5.17;2.20;;;;;;;20.69;59.27;101705.50;5071719;28;20317;-83
2022/08/27 09:08:11;;;;;;;3.65;2.03;;;;;;;20.69;59.67;101697.59;5072211;28;20027;-86
2022/08/27 09:10:57;;;;;;;2.22;1.98;;;;;;;20.74;59.83;101703.53;5071915;28;20039;-85
2022/08/27 09:13:29;;;;;;;1.70;1.60;;;;;;;20.79;60.87;101708.59;5072641;28;20078;-85
2022/08/27 09:15:59;;;;;;;2.60;1.67;;;;;;;20.82;60.74;101713.75;5072144;28;20024;-86
2022/08/27 09:18:25;;;;;;;3.38;1.90;;;;;;;20.79;58.64;101708.59;5071885;28;20365;-94
2022/08/27 09:20:59;;;;;;;1.90;1.70;;;;;;;20.72;56.11;101713.25;5074376;28;20028;-93
2022/08/27 09:23:36;;;;;;;2.50;1.88;;;;;;;20.68;59.45;101717.81;5072664;28;20445;-86
2022/08/27 09:26:01;;;;;;;2.45;1.70;;;;;;;20.66;58.31;101719.66;5071650;28;20033;-86
2022/08/27 09:31:18;;;;;;;1.93;1.57;;;;;;;20.57;57.97;101709.53;5075726;28;20078;-86
2022/08/27 09:33:43;;;;;;;1.73;1.63;;;;;;;20.62;58.22;101698.75;5075041;28;20275;-86
2022/08/27 09:36:14;;;;;;;4.22;1.63;;;;;;;20.66;59.16;101713.53;5067472;28;20038;-87
2022/08/27 09:38:51;;;;;;;1.73;1.52;;;;;;;20.65;58.24;101717.97;5075893;28;20024;-86
2022/08/27 09:41:22;;;;;;;3.53;1.52;;;;;;;20.58;55.60;101713.88;5076413;28;20028;-86
2022/08/27 09:44:06;;;;;;;1.05;1.05;;;;;;;20.67;59.48;101708.19;5076494;28;20016;-86
2022/08/27 09:46:31;;;;;;;2.95;1.67;;;;;;;20.85;56.58;101710.09;5075586;28;20032;-82
2022/08/27 09:49:09;;;;;;;2.60;1.90;;;;;;;20.94;57.48;101705.28;5075516;28;20032;-82
2022/08/27 09:51:39;;;;;;;2.25;1.67;;;;;;;21.12;58.09;101708.88;5076022;28;20028;-81
2022/08/27 09:54:07;;;;;;;5.72;2.40;;;;;;;21.15;53.28;101705.22;5074894;28;20466;-81
2022/08/27 09:56:35;;;;;;;2.92;1.50;;;;;;;21.16;55.91;101698.16;5075576;28;20032;-87
2022/08/27 09:59:07;;;;;;;3.33;1.90;;;;;;;21.33;54.71;101706.16;5074428;28;20031;-87
2022/08/27 10:01:37;;;;;;;3.95;1.90;;;;;;;21.46;51.81;101711.69;5075064;28;20052;-88
2022/08/27 10:04:15;;;;;;;3.35;2.00;;;;;;;21.47;54.87;101712.56;5075224;28;20034;-87
2022/08/27 10:06:47;;;;;;;3.35;2.00;;;;;;;21.58;51.39;101708.47;5074887;28;20426;-87
2022/08/27 10:09:31;;;;;;;5.15;2.00;;;;;;;21.65;51.49;101709.06;5075460;28;20082;-87
2022/08/27 10:12:21;;;;;;;3.85;1.92;;;;;;;21.62;53.32;101706.56;5075643;28;20020;-86
2022/08/27 10:14:56;;;;;;;3.88;1.95;;;;;;;21.45;52.97;101708.22;5074732;28;20487;-86
2022/08/27 10:17:37;;;;;;;3.00;1.95;;;;;;;21.31;54.88;101702.72;5075593;28;20032;-87
2022/08/27 10:20:08;;;;;;;2.22;1.80;;;;;;;21.26;54.53;101704.72;5074473;28;20074;-87
2022/08/27 10:22:52;;;;;;;2.60;1.80;;;;;;;21.25;52.73;101697.75;5075440;28;20507;-87
2022/08/27 10:25:33;;;;;;;2.08;1.80;;;;;;;21.22;54.03;101693.44;5074305;28;20434;-88
2022/08/27 10:28:29;;;;;;;1.33;1.20;;;;;;;21.34;56.32;101696.44;5074381;28;20032;-86
2022/08/27 10:31:12;;;;;;;3.03;1.60;;;;;;;21.45;54.73;101702.06;5074294;28;20048;-86
2022/08/27 10:34:02;;;;;;;2.35;1.80;;;;;;;21.42;52.26;101700.41;5074792;28;20032;-89
2022/08/27 10:36:45;;;;;;;2.92;1.90;;;;;;;21.35;53.51;101696.38;5075356;28;20045;-87
2022/08/27 10:39:21;;;;;;;2.15;1.65;;;;;;;21.34;53.59;101697.31;5074697;28;20445;-87
2022/08/27 10:42:07;;;;;;;2.42;1.70;;;;;;;21.41;53.87;101692.59;5074015;28;20044;-88
2022/08/27 10:44:48;;;;;;;1.42;1.33;;;;;;;21.50;54.14;101694.78;5034240;28;20123;-86
2022/08/27 10:47:30;;;;;;;2.63;1.52;;;;;;;21.58;54.41;101695.25;5074956;28;20098;-86
2022/08/27 10:50:06;;;;;;;1.10;1.08;;;;;;;21.73;53.87;101695.47;5074171;28;20059;-86
2022/08/27 10:52:41;;;;;;;1.23;1.10;;;;;;;21.90;54.62;101694.66;5075245;28;20020;-86
2022/08/27 10:55:11;;;;;;;2.45;1.25;;;;;;;21.95;53.33;101690.00;5073685;28;20078;-87
2022/08/27 10:58:09;;;;;;;3.30;2.03;;;;;;;21.84;52.61;101687.88;5074883;28;20071;-88
2022/08/27 11:00:45;;;;;;;2.40;1.70;;;;;;;21.71;52.97;101687.66;5054902;28;20496;-87
2022/08/27 11:03:43;;;;;;;1.80;1.50;;;;;;;21.65;53.99;101690.56;5053748;28;20068;-88
2022/08/27 11:06:25;;;;;;;2.90;1.70;;;;;;;21.60;51.86;101696.06;5041216;28;20044;-88
2022/08/27 11:09:01;;;;;;;1.85;1.50;;;;;;;21.52;51.93;101682.38;5050960;28;20028;-87
2022/08/27 11:11:37;;;;;;;2.90;1.60;;;;;;;21.52;53.29;101686.78;5054235;28;20024;-87
2022/08/27 11:14:08;;;;;;;1.50;1.40;;;;;;;21.71;53.07;101685.00;5054449;28;20028;-88
2022/08/27 11:16:42;;;;;;;2.83;1.40;;;;;;;21.84;52.49;101689.69;5054225;28;20490;-88
2022/08/27 11:19:32;;;;;;;4.30;1.60;;;;;;;21.77;53.13;101685.63;5054662;28;20040;-88
2022/08/27 11:22:05;;;;;;;3.38;1.33;;;;;;;21.72;52.70;101689.34;5054446;28;20028;-88
2022/08/27 11:24:46;;;;;;;2.42;1.50;;;;;;;21.63;51.57;101678.38;5068667;28;20377;-88
2022/08/27 11:27:15;;;;;;;2.60;1.58;;;;;;;21.50;51.10;101686.00;5074195;28;20036;-88
2022/08/27 11:29:45;;;;;;;1.63;1.20;;;;;;;21.48;52.12;101685.22;5074495;28;20028;-88
2022/08/27 11:32:24;;;;;;;1.83;1.30;;;;;;;21.52;52.40;101681.50;5073862;28;20028;-87
2022/08/27 11:34:59;;;;;;;2.17;1.20;;;;;;;21.51;50.72;101678.00;5074133;28;20380;-88
2022/08/27 11:37:45;;;;;;;2.67;1.35;;;;;;;21.51;52.85;101680.66;5073754;28;20032;-88
2022/08/27 11:40:26;;;;;;;;;;;;;;;21.60;52.12;101680.22;5074621;28;20035;-88
2022/08/27 11:43:03;;;;;;;3.00;1.52;;;;;;;21.72;51.10;101681.44;5074065;28;19912;-88